Terminal Aerodrome Forecast
Issued by NWS Shreveport, LA

Home | Current Version | Previous Version | Text Only | Print | Product List | Glossary On
Versions: 1 2 3 4 5 6 7 8 9 10 11 12 13 14 15 16 17
990
FTUS44 KSHV 262233 AAB
TAFLFK
TAF AMD
KLFK 262233Z 2623/2718 15008KT P6SM VCTS SCT010 OVC025CB
      TEMPO 2623/2701 VRB15G30KT 1SM +TSRA BR OVC006CB
     FM270200 15011KT P6SM BKN100
     FM270600 16009KT P6SM BKN015
     FM271600 16012KT P6SM VCTS BKN025CB=

USA.gov is the U.S. government's official web portal to all federal, state and local government web resources and services.